ベルリン/テーゲル の空港の天気 - METARとTAF

ベルリン・テーゲル国際空港 ( EDDT / TXL ) - ドイツ ベルリン
飛行場実況気象(Metar)
観測時間04/26 12:50 CEST (04/26 10:50 UTC)
風向・風速西 7m/s
視程10km以上
天気現象
全天の8割程度の雲 雲底高度 520m
全天の4割程度の雲 雲底高度 980m
気温10℃
湿度82%
気圧1012hPa
METAREDDT 261050Z 27013KT 240V320 9999 BKN017 SCT032 10/07 Q1012 TEMPO 27015G30KT
過去の天気等 Google飛行場航空写真 Wunderground天気予報

過去48時間のMETAR

飛行場予報(TAF)
発表時間: 4/26 07:00 CEST (4/26 05:00 UTC)
予報対象時間: 26日8時 CEST ~ 27日8時 CEST
風向・風速南西 5m/s
視程10km以上
全天の4割程度の雲 雲底高度 1,220m
26日8時 CEST ~ 26日12時 CEST に徐々に
風向・風速西 8m/s 瞬間風速 15m/s
26日10時 CEST ~ 26日19時 CEST に一時的に
天気現象しゅう雨
全天の8割程度の積乱雲 雲底高度 610m
26日11時 CEST ~ 26日17時 CEST に 確率 30% で一時的に
風向・風速西 10m/s 瞬間風速 21m/s
天気現象雷雨
26日18時 CEST ~ 26日21時 CEST に徐々に
風向・風速西南西 3m/s
TAF EDDT 260500Z 2606/2706 23009KT 9999 SCT040
BECMG 2606/2610 27015G30KT
TEMPO 2608/2617 SHRA BKN020CB
PROB30 TEMPO 2609/2615 27020G40KT TSRA
BECMG 2616/2619 24006KT